Stations météo

réclame
Mon MeteoGroup
Benbecula, Grande-Bretagne (3022): Température de l'air & dewpoint: 21.02.2020 01:00:00 - 27.02.2020 01:00:00 (GMT)Benbecula, Grande-Bretagne (3022): Vitesse du vent: 21.02.2020 01:00:00 - 27.02.2020 01:00:00 (GMT)Benbecula, Grande-Bretagne (3022): Direction du vent: 21.02.2020 01:00:00 - 27.02.2020 01:00:00 (GMT)Benbecula, Grande-Bretagne (3022): visibility: 21.02.2020 01:00:00 - 27.02.2020 01:00:00 (GMT)
Date & Time tt [°C] td [°C] ff [km/h] ff [knt] dd vv [km]
27.02.2020 01:00:00 4,0 -1,0 34 18 W 10
27.02.2020 00:00:00 3,0 0,0 24 13 WSW 10
26.02.2020 23:00:00 4,0 -1,0 31 17 W 10
26.02.2020 22:00:00 4,0 0,0 29 16 W 10
26.02.2020 21:00:00 3,0 0,0 28 15 W 10
26.02.2020 20:00:00 2,0 0,0 13 7 SW 10
26.02.2020 19:00:00 3,0 0,0 29 16 W 10
26.02.2020 18:00:00 4,0 -1,0 29 16 W 10
26.02.2020 17:00:00 4,0 -1,0 37 20 W 10
26.02.2020 16:00:00 4,0 0,0 26 14 W 10
26.02.2020 15:00:00 4,0 1,0 35 19 W 10
26.02.2020 14:00:00 4,0 0,0 31 17 W 10
26.02.2020 13:00:00 3,0 -1,0 37 20 W 10
26.02.2020 12:00:00 1,0 0,0 34 18 WNW 10
26.02.2020 11:00:00 3,0 0,0 24 13 WNW 10
26.02.2020 10:00:00 4,0 0,0 31 17 WNW 10
26.02.2020 09:00:00 3,0 0,0 42 23 WNW 10
26.02.2020 08:00:00 4,0 -2,0 35 19 WNW 10
26.02.2020 07:00:00 4,0 1,0 24 13 NNW 10
26.02.2020 06:00:00 3,0 0,0 26 14 NNW 10
26.02.2020 05:00:00 4,0 2,0 29 16 NW 10
26.02.2020 04:00:00 3,0 2,0 42 23 WNW 6
26.02.2020 03:00:00 3,0 1,0 34 18 W 10
26.02.2020 02:00:00 4,0 1,0 13 7 NW 10
26.02.2020 01:00:00 1,0 0,0 0 0 N 5
26.02.2020 00:00:00 2,0 0,0 8 4 NNE 10
25.02.2020 23:00:00 3,0 1,0 9 5 WSW 10
25.02.2020 22:00:00 3,0 0,0 11 6 W 10
25.02.2020 21:00:00 3,0 1,0 18 10 NW 10
25.02.2020 20:00:00 3,0 1,0 13 7 WSW 10
25.02.2020 19:00:00 3,0 2,0 11 6 S 10
25.02.2020 18:00:00 2,0 1,0 8 4 S 10
25.02.2020 17:00:00 4,0 1,0 8 4 S 10
25.02.2020 16:00:00 5,0 2,0 8 4 W 10
25.02.2020 15:00:00 4,0 1,0 2 1 - 10
25.02.2020 14:00:00 3,0 1,0 16 9 NW 10
25.02.2020 13:00:00 4,0 1,0 4 2 NNW 10
25.02.2020 12:00:00 5,0 2,0 5 3 N 10
25.02.2020 11:00:00 4,0 1,0 8 4 W 10
25.02.2020 10:00:00 4,0 1,0 16 9 WSW 10
25.02.2020 09:00:00 2,0 2,0 11 6 S 10
25.02.2020 08:00:00 3,0 1,0 13 7 SSW 10
25.02.2020 07:00:00 3,0 1,0 9 5 SSW 10
25.02.2020 06:00:00 3,0 1,0 9 5 SW 10
25.02.2020 05:00:00 3,0 0,0 9 5 WNW 10
25.02.2020 04:00:00 4,0 1,0 13 7 S 10
25.02.2020 03:00:00 4,0 2,0 9 5 SSW 10
25.02.2020 02:00:00 4,0 2,0 15 8 W 10
25.02.2020 01:00:00 3,0 1,0 16 9 WSW 2,9
25.02.2020 00:00:00 3,0 2,0 8 4 SW 10
24.02.2020 23:00:00 2,0 1,0 5 3 S 10
24.02.2020 22:00:00 1,0 1,0 0 0 N 10
24.02.2020 21:00:00 1,0 1,0 0 0 N 10
24.02.2020 20:00:00 1,0 0,0 2 1 NNE 10
24.02.2020 19:00:00 3,0 1,0 4 2 N 10
24.02.2020 18:00:00 2,0 1,0 9 5 NNE 10
24.02.2020 17:00:00 4,0 2,0 9 5 NNE 10
24.02.2020 16:00:00 4,0 1,0 15 8 NE 10
24.02.2020 15:00:00 4,0 2,0 22 12 NE 10
24.02.2020 14:00:00 4,0 2,0 28 15 ENE 10
24.02.2020 13:00:00 4,0 2,0 29 16 ENE 10
24.02.2020 12:00:00 4,0 2,0 35 19 ENE 10
24.02.2020 11:00:00 3,0 2,0 26 14 E 10
24.02.2020 10:00:00 3,0 2,0 26 14 E 10
24.02.2020 09:00:00 3,0 1,0 24 13 E 10
24.02.2020 08:00:00 4,0 1,0 29 16 ESE 10
24.02.2020 07:00:00 4,0 0,0 22 12 E 10
24.02.2020 06:00:00 4,0 2,0 16 9 E 10
24.02.2020 05:00:00 5,0 2,0 13 7 ESE 10
24.02.2020 04:00:00 4,0 2,0 11 6 ESE 10
24.02.2020 03:00:00 4,0 2,0 11 6 SE 10
24.02.2020 02:00:00 2,0 0,0 8 4 E 10
24.02.2020 01:00:00 2,0 -1,0 5 3 ESE 10
24.02.2020 00:00:00 3,0 0,0 2 1 SSE 10
23.02.2020 23:00:00 3,0 1,0 11 6 S 10
23.02.2020 22:00:00 2,0 0,0 9 5 S 10
23.02.2020 21:00:00 4,0 0,0 0 0 N 10
23.02.2020 20:00:00 6,0 1,0 11 6 NW 10
23.02.2020 19:00:00 7,0 1,0 18 10 NW 10
23.02.2020 18:00:00 7,0 1,0 18 10 NW 10
23.02.2020 17:00:00 7,0 1,0 16 9 NW 10
23.02.2020 16:00:00 7,0 1,0 31 17 NNW 10
23.02.2020 15:00:00 7,0 3,0 29 16 NW 10
23.02.2020 14:00:00 6,0 3,0 24 13 NW 10
23.02.2020 13:00:00 6,0 3,0 29 16 NW 10
23.02.2020 12:00:00 7,0 3,0 39 21 WNW 10
23.02.2020 11:00:00 7,0 3,0 46 25 W 10
23.02.2020 10:00:00 6,0 2,0 52 28 W 10
23.02.2020 09:00:00 6,0 2,0 44 24 W 10
23.02.2020 08:00:00 5,0 1,0 48 26 W 10
23.02.2020 07:00:00 5,0 1,0 46 25 W 10
23.02.2020 06:00:00 5,0 0,0 50 27 W 10
23.02.2020 05:00:00 4,0 1,0 48 26 WNW 10
23.02.2020 04:00:00 4,0 2,0 44 24 WNW 10
23.02.2020 03:00:00 5,0 0,0 42 23 W 10
23.02.2020 02:00:00 5,0 0,0 50 27 W 10
23.02.2020 01:00:00 5,0 0,0 50 27 WSW 10
23.02.2020 00:00:00 5,0 1,0 48 26 WSW 10
22.02.2020 23:00:00 6,0 -1,0 54 29 W 10
22.02.2020 22:00:00 6,0 0,0 55 30 WSW 10
22.02.2020 21:00:00 4,0 1,0 52 28 WSW 10
22.02.2020 20:00:00 6,0 0,0 65 35 WSW 10
22.02.2020 19:00:00 6,0 -1,0 65 35 WSW 10
22.02.2020 18:00:00 6,0 0,0 61 33 W 10
22.02.2020 17:00:00 5,0 0,0 68 37 W 10
22.02.2020 16:00:00 6,0 0,0 70 38 WSW 10
22.02.2020 15:00:00 6,0 1,0 70 38 W 10
22.02.2020 14:00:00 5,0 1,0 67 36 WSW 10
22.02.2020 13:00:00 6,0 1,0 68 37 WSW 10
22.02.2020 12:00:00 6,0 1,0 68 37 WSW 10
22.02.2020 11:00:00 5,0 0,0 67 36 WSW 10
22.02.2020 10:00:00 3,0 0,0 87 47 WSW 10
22.02.2020 09:00:00 4,0 0,0 72 39 W 10
22.02.2020 08:00:00 4,0 0,0 63 34 WSW 10
22.02.2020 07:00:00 - - - - - -
22.02.2020 06:00:00 - - - - - -
22.02.2020 05:00:00 - - - - - -
22.02.2020 04:00:00 - - - - - -
22.02.2020 03:00:00 - - - - - -
22.02.2020 02:00:00 - - - - - -
22.02.2020 01:00:00 - - - - - -
22.02.2020 00:00:00 - - - - - -
21.02.2020 23:00:00 - - - - - -
21.02.2020 22:00:00 - - - - - -
21.02.2020 21:00:00 - - - - - -
21.02.2020 20:00:00 - - - - - -
21.02.2020 19:00:00 - - - - - -
21.02.2020 18:00:00 7,0 5,0 46 25 WSW 5
21.02.2020 17:00:00 9,0 3,0 46 25 SW 10
21.02.2020 16:00:00 8,0 3,0 57 31 WSW 8
21.02.2020 15:00:00 9,0 5,0 67 36 WSW 8
21.02.2020 14:00:00 9,0 7,0 34 18 WSW 8
21.02.2020 13:00:00 10,0 6,0 41 22 WSW 10
21.02.2020 12:00:00 9,0 5,0 46 25 WSW 10
21.02.2020 11:00:00 9,0 5,0 41 22 WSW 10
21.02.2020 10:00:00 10,0 4,0 57 31 WSW 10
21.02.2020 09:00:00 10,0 8,0 55 30 WSW 10
21.02.2020 08:00:00 10,0 8,0 63 34 SW 7
21.02.2020 07:00:00 9,0 8,0 68 37 SW 5
21.02.2020 06:00:00 9,0 8,0 68 37 SW 5
21.02.2020 05:00:00 8,0 7,0 67 36 SW 4,6
21.02.2020 04:00:00 8,0 6,0 70 38 SW 4,0
21.02.2020 03:00:00 8,0 6,0 68 37 SW 4,3
21.02.2020 02:00:00 8,0 5,0 59 32 SW 7
21.02.2020 01:00:00 8,0 4,0 55 30 SW 10

tt = Température de l'air
td = dewpoint
ff = Vitesse du vent
dd = Direction du vent
vv = visibility

stations d'obs. à proximité